createdAt,value
2018-06-09T00:07:31.102Z,5.30
2018-06-09T00:17:33.098Z,4.23
2018-06-09T00:27:34.345Z,4.73
2018-06-09T00:37:35.618Z,4.37
2018-06-09T00:47:36.895Z,5.20
2018-06-09T00:57:39.053Z,4.90
2018-06-09T01:07:40.305Z,4.97
2018-06-09T01:17:42.322Z,5.23
2018-06-09T01:27:48.080Z,4.87
2018-06-09T01:37:50.074Z,5.23
2018-06-09T01:47:51.462Z,5.13
2018-06-09T01:57:52.698Z,5.07
2018-06-09T02:07:54.706Z,5.70
2018-06-09T02:17:56.723Z,6.03
2018-06-09T02:27:58.747Z,5.73
2018-06-09T02:38:00.150Z,6.03
2018-06-09T02:48:01.556Z,5.67
2018-06-09T02:58:02.961Z,5.70
2018-06-09T03:08:04.370Z,4.70
2018-06-09T03:18:05.602Z,5.90
2018-06-09T03:28:06.842Z,6.30
2018-06-09T03:38:08.074Z,4.87
2018-06-09T03:48:09.321Z,4.87
2018-06-09T03:58:10.580Z,4.30
2018-06-09T04:08:11.947Z,4.80
2018-06-09T04:18:13.341Z,4.00
2018-06-09T04:28:14.762Z,4.97
2018-06-09T04:38:16.149Z,5.17
2018-06-09T04:48:22.735Z,5.17
2018-06-09T04:58:24.151Z,5.13
2018-06-09T05:08:25.382Z,4.97
2018-06-09T05:18:26.683Z,5.17
2018-06-09T05:28:27.888Z,5.30
2018-06-09T05:38:29.886Z,5.13
2018-06-09T05:48:31.122Z,4.70
2018-06-09T05:58:32.542Z,4.77
2018-06-09T06:08:33.795Z,4.90
2018-06-09T06:18:35.051Z,5.20
2018-06-09T06:28:36.443Z,5.17
2018-06-09T06:48:44.402Z,4.13
2018-06-09T06:58:45.647Z,4.27
2018-06-09T07:08:46.884Z,4.30
2018-06-09T07:18:53.358Z,4.13
2018-06-09T07:28:54.596Z,4.80
2018-06-09T07:38:56.599Z,4.37
2018-06-09T07:49:02.224Z,3.60
2018-06-09T07:59:03.643Z,3.05
2018-06-09T08:09:06.908Z,3.20
2018-06-09T08:19:08.169Z,3.58
2018-06-09T08:29:09.449Z,3.90
2018-06-09T08:39:10.730Z,4.15
2018-06-09T08:49:11.987Z,3.60
2018-06-09T08:59:13.272Z,3.50
2018-06-09T09:09:14.578Z,3.80
2018-06-09T09:19:17.132Z,2.97
2018-06-09T09:29:19.224Z,2.20
2018-06-09T09:39:20.467Z,2.62
2018-06-09T09:49:21.751Z,2.67
2018-06-09T09:59:23.142Z,2.95
2018-06-09T10:19:31.747Z,3.35
2018-06-09T10:29:33.918Z,3.00
2018-06-09T10:39:35.195Z,2.85
2018-06-09T10:49:36.465Z,2.17
2018-06-09T10:59:39.756Z,2.78
2018-06-09T11:09:40.995Z,2.62
2018-06-09T11:19:42.276Z,3.45
2018-06-09T11:29:44.292Z,3.53
2018-06-09T11:39:46.307Z,3.40
2018-06-09T11:49:48.337Z,3.17
2018-06-09T12:20:03.614Z,3.43
2018-06-09T12:30:04.867Z,2.90
2018-06-09T12:40:06.867Z,3.37
2018-06-09T12:50:08.118Z,3.27
2018-06-09T13:00:09.746Z,3.23
2018-06-09T13:10:11.056Z,3.40
2018-06-09T13:20:12.286Z,3.50
2018-06-09T13:30:14.293Z,3.03
2018-06-09T13:40:16.471Z,3.63
2018-06-09T13:50:17.735Z,3.63
2018-06-09T14:00:19.011Z,3.20
2018-06-09T14:10:20.294Z,3.40
2018-06-09T14:20:22.470Z,2.83
2018-06-09T14:30:23.730Z,3.47
2018-06-09T14:40:24.966Z,3.20
2018-06-09T14:50:26.225Z,3.90
2018-06-09T15:00:27.493Z,3.33
2018-06-09T15:10:28.733Z,3.20
2018-06-09T15:20:29.981Z,3.43
2018-06-09T15:30:31.254Z,3.50
2018-06-09T15:50:40.410Z,3.53
2018-06-09T16:00:43.923Z,2.90
2018-06-09T16:10:45.985Z,3.10
2018-06-09T16:20:47.242Z,3.67
2018-06-09T16:30:49.306Z,3.23
2018-06-09T16:40:50.540Z,2.97
2018-06-09T16:50:51.775Z,3.07
2018-06-09T17:00:53.022Z,3.53
2018-06-09T17:10:54.277Z,3.80
2018-06-09T17:20:55.518Z,3.20
2018-06-09T17:51:10.932Z,3.77
2018-06-09T18:01:12.208Z,3.30
2018-06-09T18:11:18.883Z,4.17
2018-06-09T18:21:20.926Z,3.83
2018-06-09T18:31:22.950Z,4.03
2018-06-09T18:41:24.286Z,4.63
2018-06-09T18:51:25.581Z,4.60
2018-06-09T19:01:26.824Z,4.50
2018-06-09T19:11:28.919Z,4.53
2018-06-09T19:21:30.154Z,4.07
2018-06-09T19:31:31.394Z,4.13
2018-06-09T19:41:32.648Z,3.93
2018-06-09T19:51:33.914Z,3.97
2018-06-09T20:01:35.167Z,5.20
2018-06-09T20:11:36.430Z,5.73
2018-06-09T20:21:37.690Z,5.20
2018-06-09T20:41:45.526Z,4.93
2018-06-09T20:51:46.811Z,4.90
2018-06-09T21:01:48.013Z,5.53
2018-06-09T21:11:49.255Z,4.30
2018-06-09T21:21:50.493Z,4.37
2018-06-09T21:31:51.739Z,4.90
2018-06-09T21:41:52.983Z,4.20
2018-06-09T21:51:54.253Z,5.03
2018-06-09T22:01:55.651Z,4.33
2018-06-09T22:22:04.174Z,4.63
2018-06-09T22:32:05.452Z,5.27
2018-06-09T22:42:06.714Z,5.27
2018-06-09T22:52:07.953Z,5.50
2018-06-09T23:02:09.195Z,5.43
2018-06-09T23:12:10.440Z,5.10
2018-06-09T23:22:11.677Z,5.23
2018-06-09T23:32:12.906Z,6.07
2018-06-09T23:42:14.322Z,6.37
2018-06-09T23:52:16.474Z,6.27
